sensor_id;sensor_type;location;lat;lon;timestamp;P1;durP1;ratioP1;P2;durP2;ratioP2
4837;SDS011;2433;48.768;9.154;2024-03-23T00:53:57;2.80;;;2.10;;
4837;SDS011;2433;48.768;9.154;2024-03-23T00:56:23;4.40;;;2.27;;
4837;SDS011;2433;48.768;9.154;2024-03-23T00:58:49;2.53;;;1.70;;
4837;SDS011;2433;48.768;9.154;2024-03-23T01:01:15;1.87;;;1.77;;
4837;SDS011;2433;48.768;9.154;2024-03-23T01:03:41;2.27;;;2.07;;
4837;SDS011;2433;48.768;9.154;2024-03-23T01:06:06;2.53;;;1.47;;
4837;SDS011;2433;48.768;9.154;2024-03-23T01:08:32;4.30;;;1.60;;
4837;SDS011;2433;48.768;9.154;2024-03-23T01:10:58;6.53;;;1.93;;
4837;SDS011;2433;48.768;9.154;2024-03-23T01:13:25;2.90;;;1.70;;
4837;SDS011;2433;48.768;9.154;2024-03-23T01:15:51;2.67;;;2.47;;
4837;SDS011;2433;48.768;9.154;2024-03-23T01:18:17;1.50;;;1.30;;
4837;SDS011;2433;48.768;9.154;2024-03-23T01:20:43;3.57;;;1.50;;
4837;SDS011;2433;48.768;9.154;2024-03-23T01:23:09;2.40;;;1.50;;
4837;SDS011;2433;48.768;9.154;2024-03-23T01:25:35;2.40;;;1.90;;
4837;SDS011;2433;48.768;9.154;2024-03-23T01:28:01;2.90;;;2.63;;
4837;SDS011;2433;48.768;9.154;2024-03-23T01:30:26;3.47;;;1.93;;
4837;SDS011;2433;48.768;9.154;2024-03-23T01:32:52;3.23;;;1.77;;
4837;SDS011;2433;48.768;9.154;2024-03-23T01:35:18;2.03;;;1.83;;
4837;SDS011;2433;48.768;9.154;2024-03-23T01:37:44;2.77;;;2.00;;
4837;SDS011;2433;48.768;9.154;2024-03-23T01:40:10;3.00;;;1.23;;
4837;SDS011;2433;48.768;9.154;2024-03-23T01:42:38;2.13;;;1.80;;
4837;SDS011;2433;48.768;9.154;2024-03-23T01:45:06;2.93;;;1.77;;
4837;SDS011;2433;48.768;9.154;2024-03-23T01:47:33;2.73;;;1.77;;
4837;SDS011;2433;48.768;9.154;2024-03-23T01:49:59;3.80;;;1.50;;
4837;SDS011;2433;48.768;9.154;2024-03-23T01:52:25;3.77;;;2.00;;
4837;SDS011;2433;48.768;9.154;2024-03-23T01:54:52;2.50;;;1.87;;
4837;SDS011;2433;48.768;9.154;2024-03-23T01:57:22;3.23;;;1.83;;
4837;SDS011;2433;48.768;9.154;2024-03-23T01:59:48;1.50;;;1.30;;
4837;SDS011;2433;48.768;9.154;2024-03-23T02:02:21;2.50;;;1.80;;
4837;SDS011;2433;48.768;9.154;2024-03-23T02:04:47;2.27;;;1.70;;
4837;SDS011;2433;48.768;9.154;2024-03-23T02:07:12;3.03;;;1.63;;
4837;SDS011;2433;48.768;9.154;2024-03-23T02:09:39;3.60;;;1.50;;
4837;SDS011;2433;48.768;9.154;2024-03-23T02:12:04;1.83;;;1.50;;
4837;SDS011;2433;48.768;9.154;2024-03-23T02:14:30;1.97;;;1.63;;
4837;SDS011;2433;48.768;9.154;2024-03-23T02:16:57;3.10;;;1.67;;
4837;SDS011;2433;48.768;9.154;2024-03-23T02:19:23;2.30;;;2.07;;
4837;SDS011;2433;48.768;9.154;2024-03-23T02:21:49;3.13;;;2.03;;
4837;SDS011;2433;48.768;9.154;2024-03-23T02:24:15;1.50;;;1.37;;
4837;SDS011;2433;48.768;9.154;2024-03-23T02:26:40;1.90;;;1.53;;
4837;SDS011;2433;48.768;9.154;2024-03-23T02:29:06;2.70;;;2.40;;
4837;SDS011;2433;48.768;9.154;2024-03-23T02:31:31;1.63;;;1.53;;
4837;SDS011;2433;48.768;9.154;2024-03-23T02:33:57;2.90;;;1.63;;
4837;SDS011;2433;48.768;9.154;2024-03-23T02:36:22;2.60;;;1.63;;
4837;SDS011;2433;48.768;9.154;2024-03-23T02:38:48;2.27;;;1.73;;
4837;SDS011;2433;48.768;9.154;2024-03-23T02:41:14;2.80;;;2.30;;
4837;SDS011;2433;48.768;9.154;2024-03-23T02:43:40;1.57;;;1.47;;
4837;SDS011;2433;48.768;9.154;2024-03-23T02:46:05;3.20;;;1.80;;
4837;SDS011;2433;48.768;9.154;2024-03-23T02:48:31;2.40;;;1.43;;
4837;SDS011;2433;48.768;9.154;2024-03-23T02:50:56;2.77;;;2.20;;
4837;SDS011;2433;48.768;9.154;2024-03-23T02:53:22;2.37;;;1.87;;
4837;SDS011;2433;48.768;9.154;2024-03-23T02:55:47;2.47;;;1.80;;
4837;SDS011;2433;48.768;9.154;2024-03-23T02:58:13;2.20;;;1.30;;
4837;SDS011;2433;48.768;9.154;2024-03-23T03:00:39;1.40;;;1.30;;
4837;SDS011;2433;48.768;9.154;2024-03-23T03:03:05;3.70;;;2.00;;
4837;SDS011;2433;48.768;9.154;2024-03-23T03:05:32;1.70;;;1.33;;
4837;SDS011;2433;48.768;9.154;2024-03-23T03:07:58;2.10;;;2.00;;
4837;SDS011;2433;48.768;9.154;2024-03-23T03:10:23;4.43;;;1.70;;
4837;SDS011;2433;48.768;9.154;2024-03-23T03:12:49;1.77;;;1.40;;
4837;SDS011;2433;48.768;9.154;2024-03-23T03:15:14;2.20;;;1.50;;
4837;SDS011;2433;48.768;9.154;2024-03-23T03:17:40;2.50;;;1.50;;
4837;SDS011;2433;48.768;9.154;2024-03-23T03:20:06;2.93;;;2.00;;
4837;SDS011;2433;48.768;9.154;2024-03-23T03:22:32;1.90;;;1.70;;
4837;SDS011;2433;48.768;9.154;2024-03-23T03:24:57;2.60;;;1.87;;
4837;SDS011;2433;48.768;9.154;2024-03-23T03:27:25;1.70;;;1.60;;
4837;SDS011;2433;48.768;9.154;2024-03-23T03:29:50;1.70;;;1.60;;
4837;SDS011;2433;48.768;9.154;2024-03-23T03:32:16;2.80;;;1.90;;
4837;SDS011;2433;48.768;9.154;2024-03-23T03:34:42;1.90;;;1.70;;
4837;SDS011;2433;48.768;9.154;2024-03-23T03:37:07;2.33;;;1.70;;
4837;SDS011;2433;48.768;9.154;2024-03-23T03:39:33;1.83;;;1.60;;
4837;SDS011;2433;48.768;9.154;2024-03-23T03:41:59;2.73;;;1.87;;
4837;SDS011;2433;48.768;9.154;2024-03-23T03:44:25;2.57;;;2.10;;
4837;SDS011;2433;48.768;9.154;2024-03-23T03:46:51;3.43;;;1.93;;
4837;SDS011;2433;48.768;9.154;2024-03-23T03:49:16;4.67;;;1.40;;
4837;SDS011;2433;48.768;9.154;2024-03-23T03:51:42;1.47;;;1.37;;
4837;SDS011;2433;48.768;9.154;2024-03-23T03:54:08;1.83;;;1.53;;
4837;SDS011;2433;48.768;9.154;2024-03-23T03:56:33;4.33;;;2.13;;
4837;SDS011;2433;48.768;9.154;2024-03-23T03:58:59;2.37;;;1.97;;
4837;SDS011;2433;48.768;9.154;2024-03-23T04:01:24;3.93;;;1.70;;
4837;SDS011;2433;48.768;9.154;2024-03-23T04:03:50;2.57;;;1.57;;
4837;SDS011;2433;48.768;9.154;2024-03-23T04:06:19;2.00;;;1.80;;
4837;SDS011;2433;48.768;9.154;2024-03-23T04:08:45;2.30;;;1.67;;
4837;SDS011;2433;48.768;9.154;2024-03-23T04:11:10;1.83;;;1.57;;
4837;SDS011;2433;48.768;9.154;2024-03-23T04:13:36;2.00;;;1.90;;
4837;SDS011;2433;48.768;9.154;2024-03-23T04:16:02;1.97;;;1.40;;
4837;SDS011;2433;48.768;9.154;2024-03-23T04:18:27;2.13;;;1.20;;
4837;SDS011;2433;48.768;9.154;2024-03-23T04:20:53;2.00;;;1.90;;
4837;SDS011;2433;48.768;9.154;2024-03-23T04:23:18;1.60;;;1.50;;
4837;SDS011;2433;48.768;9.154;2024-03-23T04:25:44;1.80;;;1.37;;
4837;SDS011;2433;48.768;9.154;2024-03-23T04:28:09;1.70;;;1.60;;
4837;SDS011;2433;48.768;9.154;2024-03-23T04:30:35;1.57;;;1.23;;
4837;SDS011;2433;48.768;9.154;2024-03-23T04:33:02;2.33;;;2.00;;
4837;SDS011;2433;48.768;9.154;2024-03-23T04:35:27;1.40;;;1.30;;
4837;SDS011;2433;48.768;9.154;2024-03-23T04:37:53;2.00;;;1.43;;
4837;SDS011;2433;48.768;9.154;2024-03-23T04:40:21;2.37;;;2.10;;
4837;SDS011;2433;48.768;9.154;2024-03-23T04:42:46;1.60;;;1.47;;
4837;SDS011;2433;48.768;9.154;2024-03-23T04:45:12;1.80;;;1.57;;
4837;SDS011;2433;48.768;9.154;2024-03-23T04:47:38;2.03;;;1.83;;
4837;SDS011;2433;48.768;9.154;2024-03-23T04:50:05;2.00;;;1.80;;
4837;SDS011;2433;48.768;9.154;2024-03-23T04:52:30;2.63;;;1.73;;
4837;SDS011;2433;48.768;9.154;2024-03-23T04:54:56;3.33;;;1.80;;
4837;SDS011;2433;48.768;9.154;2024-03-23T04:57:22;4.80;;;2.30;;
4837;SDS011;2433;48.768;9.154;2024-03-23T04:59:47;3.47;;;2.30;;
4837;SDS011;2433;48.768;9.154;2024-03-23T05:02:13;4.77;;;2.60;;
4837;SDS011;2433;48.768;9.154;2024-03-23T05:04:41;4.23;;;2.97;;
4837;SDS011;2433;48.768;9.154;2024-03-23T05:07:06;3.77;;;3.23;;
4837;SDS011;2433;48.768;9.154;2024-03-23T05:09:32;9.00;;;4.43;;
4837;SDS011;2433;48.768;9.154;2024-03-23T05:11:59;5.93;;;4.60;;
4837;SDS011;2433;48.768;9.154;2024-03-23T05:14:25;7.90;;;5.17;;
4837;SDS011;2433;48.768;9.154;2024-03-23T05:16:52;7.77;;;4.90;;
4837;SDS011;2433;48.768;9.154;2024-03-23T05:19:18;9.40;;;5.70;;
4837;SDS011;2433;48.768;9.154;2024-03-23T05:21:44;7.00;;;4.70;;
4837;SDS011;2433;48.768;9.154;2024-03-23T05:24:09;9.20;;;5.90;;
4837;SDS011;2433;48.768;9.154;2024-03-23T05:26:35;7.83;;;5.23;;
4837;SDS011;2433;48.768;9.154;2024-03-23T05:29:02;8.27;;;6.50;;
4837;SDS011;2433;48.768;9.154;2024-03-23T05:31:28;11.50;;;6.90;;
4837;SDS011;2433;48.768;9.154;2024-03-23T05:33:55;11.10;;;5.93;;
4837;SDS011;2433;48.768;9.154;2024-03-23T05:36:20;9.90;;;6.40;;
4837;SDS011;2433;48.768;9.154;2024-03-23T05:38:47;7.80;;;5.50;;
4837;SDS011;2433;48.768;9.154;2024-03-23T05:41:13;9.87;;;6.37;;
4837;SDS011;2433;48.768;9.154;2024-03-23T05:43:39;7.40;;;5.17;;
4837;SDS011;2433;48.768;9.154;2024-03-23T05:46:04;9.00;;;5.30;;
4837;SDS011;2433;48.768;9.154;2024-03-23T05:48:30;7.87;;;5.20;;
4837;SDS011;2433;48.768;9.154;2024-03-23T05:50:57;8.73;;;4.93;;
4837;SDS011;2433;48.768;9.154;2024-03-23T05:53:23;5.93;;;4.30;;
4837;SDS011;2433;48.768;9.154;2024-03-23T05:55:49;4.90;;;3.87;;
4837;SDS011;2433;48.768;9.154;2024-03-23T05:58:16;4.30;;;2.97;;
4837;SDS011;2433;48.768;9.154;2024-03-23T06:00:42;5.53;;;3.43;;
4837;SDS011;2433;48.768;9.154;2024-03-23T06:03:08;4.10;;;2.80;;
4837;SDS011;2433;48.768;9.154;2024-03-23T06:05:34;6.13;;;4.07;;
4837;SDS011;2433;48.768;9.154;2024-03-23T06:08:00;4.00;;;3.20;;
4837;SDS011;2433;48.768;9.154;2024-03-23T06:10:25;4.20;;;2.83;;
4837;SDS011;2433;48.768;9.154;2024-03-23T06:12:51;5.40;;;3.60;;
4837;SDS011;2433;48.768;9.154;2024-03-23T06:15:18;2.97;;;2.50;;
4837;SDS011;2433;48.768;9.154;2024-03-23T06:17:44;5.43;;;2.70;;
4837;SDS011;2433;48.768;9.154;2024-03-23T06:20:09;3.40;;;2.43;;
4837;SDS011;2433;48.768;9.154;2024-03-23T06:22:35;6.23;;;3.00;;
4837;SDS011;2433;48.768;9.154;2024-03-23T06:25:01;4.63;;;2.23;;
4837;SDS011;2433;48.768;9.154;2024-03-23T06:27:27;3.40;;;1.63;;
4837;SDS011;2433;48.768;9.154;2024-03-23T06:29:53;2.30;;;1.33;;
4837;SDS011;2433;48.768;9.154;2024-03-23T06:32:19;1.53;;;0.87;;
4837;SDS011;2433;48.768;9.154;2024-03-23T06:34:45;1.90;;;1.20;;
4837;SDS011;2433;48.768;9.154;2024-03-23T06:37:11;1.07;;;0.80;;
4837;SDS011;2433;48.768;9.154;2024-03-23T06:39:37;2.20;;;1.10;;
4837;SDS011;2433;48.768;9.154;2024-03-23T06:42:03;2.23;;;0.80;;
4837;SDS011;2433;48.768;9.154;2024-03-23T06:44:29;0.63;;;0.63;;
4837;SDS011;2433;48.768;9.154;2024-03-23T06:46:55;2.40;;;0.83;;
4837;SDS011;2433;48.768;9.154;2024-03-23T06:49:22;1.00;;;0.60;;
4837;SDS011;2433;48.768;9.154;2024-03-23T06:51:47;0.50;;;0.30;;
4837;SDS011;2433;48.768;9.154;2024-03-23T06:54:13;0.60;;;0.40;;
4837;SDS011;2433;48.768;9.154;2024-03-23T06:56:40;0.70;;;0.40;;
4837;SDS011;2433;48.768;9.154;2024-03-23T06:59:06;0.60;;;0.30;;
4837;SDS011;2433;48.768;9.154;2024-03-23T07:01:32;0.50;;;0.30;;
4837;SDS011;2433;48.768;9.154;2024-03-23T07:03:57;0.70;;;0.47;;
4837;SDS011;2433;48.768;9.154;2024-03-23T07:06:23;1.23;;;0.50;;
4837;SDS011;2433;48.768;9.154;2024-03-23T07:08:49;0.40;;;0.30;;
4837;SDS011;2433;48.768;9.154;2024-03-23T07:11:21;0.50;;;0.30;;
4837;SDS011;2433;48.768;9.154;2024-03-23T07:13:49;0.50;;;0.20;;
4837;SDS011;2433;48.768;9.154;2024-03-23T07:16:15;0.50;;;0.20;;
4837;SDS011;2433;48.768;9.154;2024-03-23T07:18:41;0.40;;;0.30;;
4837;SDS011;2433;48.768;9.154;2024-03-23T07:21:07;0.50;;;0.30;;
4837;SDS011;2433;48.768;9.154;2024-03-23T07:23:33;0.50;;;0.20;;
4837;SDS011;2433;48.768;9.154;2024-03-23T07:26:00;0.50;;;0.30;;
4837;SDS011;2433;48.768;9.154;2024-03-23T07:28:26;0.53;;;0.30;;
4837;SDS011;2433;48.768;9.154;2024-03-23T07:31:06;0.40;;;0.23;;
4837;SDS011;2433;48.768;9.154;2024-03-23T07:33:37;0.50;;;0.30;;
4837;SDS011;2433;48.768;9.154;2024-03-23T07:36:06;0.40;;;0.20;;
4837;SDS011;2433;48.768;9.154;2024-03-23T07:38:32;1.33;;;0.20;;
4837;SDS011;2433;48.768;9.154;2024-03-23T07:43:34;0.70;;;0.30;;
4837;SDS011;2433;48.768;9.154;2024-03-23T07:46:00;0.60;;;0.60;;
4837;SDS011;2433;48.768;9.154;2024-03-23T07:48:26;0.50;;;0.30;;
4837;SDS011;2433;48.768;9.154;2024-03-23T07:51:00;0.50;;;0.30;;
4837;SDS011;2433;48.768;9.154;2024-03-23T07:53:26;2.97;;;0.83;;
4837;SDS011;2433;48.768;9.154;2024-03-23T07:55:55;0.60;;;0.30;;
4837;SDS011;2433;48.768;9.154;2024-03-23T07:58:21;0.40;;;0.23;;
4837;SDS011;2433;48.768;9.154;2024-03-23T08:00:47;0.40;;;0.30;;
4837;SDS011;2433;48.768;9.154;2024-03-23T08:03:12;0.50;;;0.30;;
4837;SDS011;2433;48.768;9.154;2024-03-23T08:05:38;0.53;;;0.30;;
4837;SDS011;2433;48.768;9.154;2024-03-23T08:08:04;0.70;;;0.37;;
4837;SDS011;2433;48.768;9.154;2024-03-23T08:10:29;0.90;;;0.50;;
4837;SDS011;2433;48.768;9.154;2024-03-23T08:12:55;0.70;;;0.40;;
4837;SDS011;2433;48.768;9.154;2024-03-23T08:15:20;1.10;;;0.63;;
4837;SDS011;2433;48.768;9.154;2024-03-23T08:17:46;2.40;;;2.30;;
4837;SDS011;2433;48.768;9.154;2024-03-23T08:20:12;0.67;;;0.33;;
4837;SDS011;2433;48.768;9.154;2024-03-23T08:22:37;1.30;;;0.70;;
4837;SDS011;2433;48.768;9.154;2024-03-23T08:25:03;0.50;;;0.30;;
4837;SDS011;2433;48.768;9.154;2024-03-23T08:27:28;0.80;;;0.40;;
4837;SDS011;2433;48.768;9.154;2024-03-23T08:29:54;0.80;;;0.50;;
4837;SDS011;2433;48.768;9.154;2024-03-23T08:32:20;0.97;;;0.40;;
4837;SDS011;2433;48.768;9.154;2024-03-23T08:34:45;0.60;;;0.37;;
4837;SDS011;2433;48.768;9.154;2024-03-23T08:37:10;0.70;;;0.43;;
4837;SDS011;2433;48.768;9.154;2024-03-23T08:39:36;0.60;;;0.50;;
4837;SDS011;2433;48.768;9.154;2024-03-23T08:42:02;1.23;;;0.40;;
4837;SDS011;2433;48.768;9.154;2024-03-23T08:44:27;0.70;;;0.40;;
4837;SDS011;2433;48.768;9.154;2024-03-23T08:46:55;1.20;;;1.10;;
4837;SDS011;2433;48.768;9.154;2024-03-23T08:49:21;1.17;;;0.60;;
4837;SDS011;2433;48.768;9.154;2024-03-23T08:51:47;1.10;;;0.60;;
4837;SDS011;2433;48.768;9.154;2024-03-23T08:54:12;1.37;;;0.70;;
4837;SDS011;2433;48.768;9.154;2024-03-23T08:56:38;0.83;;;0.37;;
4837;SDS011;2433;48.768;9.154;2024-03-23T08:59:03;1.10;;;1.00;;
4837;SDS011;2433;48.768;9.154;2024-03-23T09:01:29;6.87;;;0.83;;
4837;SDS011;2433;48.768;9.154;2024-03-23T09:03:54;1.63;;;0.90;;
4837;SDS011;2433;48.768;9.154;2024-03-23T09:06:20;0.80;;;0.50;;
4837;SDS011;2433;48.768;9.154;2024-03-23T09:08:46;0.50;;;0.40;;
4837;SDS011;2433;48.768;9.154;2024-03-23T09:11:12;3.27;;;2.40;;
4837;SDS011;2433;48.768;9.154;2024-03-23T09:13:38;1.00;;;0.60;;
4837;SDS011;2433;48.768;9.154;2024-03-23T09:16:05;1.30;;;1.03;;
4837;SDS011;2433;48.768;9.154;2024-03-23T09:18:32;0.70;;;0.60;;
4837;SDS011;2433;48.768;9.154;2024-03-23T09:20:58;1.63;;;0.97;;
4837;SDS011;2433;48.768;9.154;2024-03-23T09:23:24;2.27;;;1.53;;
4837;SDS011;2433;48.768;9.154;2024-03-23T09:25:49;2.13;;;0.97;;
4837;SDS011;2433;48.768;9.154;2024-03-23T09:28:15;1.47;;;1.10;;
4837;SDS011;2433;48.768;9.154;2024-03-23T09:30:40;3.73;;;1.07;;
4837;SDS011;2433;48.768;9.154;2024-03-23T09:33:09;0.67;;;0.50;;
4837;SDS011;2433;48.768;9.154;2024-03-23T09:35:39;1.40;;;0.83;;
4837;SDS011;2433;48.768;9.154;2024-03-23T09:38:05;0.40;;;0.20;;
4837;SDS011;2433;48.768;9.154;2024-03-23T09:40:32;2.17;;;1.30;;
4837;SDS011;2433;48.768;9.154;2024-03-23T09:42:58;2.20;;;0.90;;
4837;SDS011;2433;48.768;9.154;2024-03-23T09:45:28;3.27;;;1.87;;
4837;SDS011;2433;48.768;9.154;2024-03-23T09:47:56;1.07;;;1.03;;
4837;SDS011;2433;48.768;9.154;2024-03-23T09:50:22;1.47;;;1.23;;
4837;SDS011;2433;48.768;9.154;2024-03-23T09:52:48;1.70;;;1.37;;
4837;SDS011;2433;48.768;9.154;2024-03-23T09:55:15;4.47;;;1.43;;
4837;SDS011;2433;48.768;9.154;2024-03-23T09:57:41;1.20;;;0.83;;
4837;SDS011;2433;48.768;9.154;2024-03-23T10:00:07;2.93;;;1.87;;
4837;SDS011;2433;48.768;9.154;2024-03-23T10:02:33;2.20;;;1.87;;
4837;SDS011;2433;48.768;9.154;2024-03-23T10:04:59;3.80;;;1.77;;
4837;SDS011;2433;48.768;9.154;2024-03-23T10:07:25;2.07;;;1.40;;
4837;SDS011;2433;48.768;9.154;2024-03-23T10:09:51;3.00;;;1.37;;
4837;SDS011;2433;48.768;9.154;2024-03-23T10:12:17;2.10;;;1.60;;
4837;SDS011;2433;48.768;9.154;2024-03-23T10:14:44;2.37;;;1.23;;
4837;SDS011;2433;48.768;9.154;2024-03-23T10:19:46;1.87;;;1.23;;
4837;SDS011;2433;48.768;9.154;2024-03-23T10:22:17;2.97;;;1.20;;
4837;SDS011;2433;48.768;9.154;2024-03-23T10:24:43;7.37;;;1.70;;
4837;SDS011;2433;48.768;9.154;2024-03-23T10:27:09;2.00;;;1.70;;
4837;SDS011;2433;48.768;9.154;2024-03-23T10:29:35;2.43;;;1.10;;
4837;SDS011;2433;48.768;9.154;2024-03-23T10:32:13;2.40;;;1.60;;
4837;SDS011;2433;48.768;9.154;2024-03-23T10:34:42;3.50;;;1.03;;
4837;SDS011;2433;48.768;9.154;2024-03-23T10:37:08;3.90;;;1.83;;
4837;SDS011;2433;48.768;9.154;2024-03-23T10:39:35;4.17;;;2.13;;
4837;SDS011;2433;48.768;9.154;2024-03-23T10:42:08;1.37;;;1.23;;
4837;SDS011;2433;48.768;9.154;2024-03-23T10:44:37;2.50;;;1.00;;
4837;SDS011;2433;48.768;9.154;2024-03-23T10:47:04;1.97;;;1.77;;
4837;SDS011;2433;48.768;9.154;2024-03-23T10:49:30;6.00;;;1.53;;
4837;SDS011;2433;48.768;9.154;2024-03-23T10:51:58;3.43;;;2.07;;
4837;SDS011;2433;48.768;9.154;2024-03-23T10:54:30;4.83;;;2.30;;
4837;SDS011;2433;48.768;9.154;2024-03-23T10:57:10;3.80;;;1.00;;
4837;SDS011;2433;48.768;9.154;2024-03-23T10:59:38;1.47;;;0.90;;
4837;SDS011;2433;48.768;9.154;2024-03-23T11:02:04;1.27;;;0.80;;
4837;SDS011;2433;48.768;9.154;2024-03-23T11:04:35;0.60;;;0.60;;
4837;SDS011;2433;48.768;9.154;2024-03-23T11:07:28;0.93;;;0.73;;
4837;SDS011;2433;48.768;9.154;2024-03-23T11:09:49;2.33;;;1.23;;
4837;SDS011;2433;48.768;9.154;2024-03-23T11:12:17;1.43;;;1.23;;
4837;SDS011;2433;48.768;9.154;2024-03-23T11:14:57;2.20;;;1.07;;
4837;SDS011;2433;48.768;9.154;2024-03-23T11:17:25;3.07;;;0.77;;
4837;SDS011;2433;48.768;9.154;2024-03-23T11:19:57;1.60;;;1.20;;
4837;SDS011;2433;48.768;9.154;2024-03-23T11:22:40;0.50;;;0.40;;
4837;SDS011;2433;48.768;9.154;2024-03-23T11:25:18;1.03;;;0.93;;
4837;SDS011;2433;48.768;9.154;2024-03-23T11:27:51;2.00;;;1.03;;
4837;SDS011;2433;48.768;9.154;2024-03-23T11:30:22;1.40;;;1.23;;
4837;SDS011;2433;48.768;9.154;2024-03-23T11:32:49;1.60;;;1.10;;
4837;SDS011;2433;48.768;9.154;2024-03-23T11:35:25;5.00;;;1.30;;
4837;SDS011;2433;48.768;9.154;2024-03-23T11:40:40;1.10;;;0.90;;
4837;SDS011;2433;48.768;9.154;2024-03-23T11:43:10;1.53;;;1.23;;
4837;SDS011;2433;48.768;9.154;2024-03-23T11:45:43;2.10;;;0.90;;
4837;SDS011;2433;48.768;9.154;2024-03-23T11:48:11;3.07;;;1.10;;
4837;SDS011;2433;48.768;9.154;2024-03-23T11:50:41;2.60;;;1.07;;
4837;SDS011;2433;48.768;9.154;2024-03-23T11:53:08;0.80;;;0.80;;
4837;SDS011;2433;48.768;9.154;2024-03-23T11:58:21;0.97;;;0.80;;
4837;SDS011;2433;48.768;9.154;2024-03-23T12:00:57;2.63;;;0.93;;
4837;SDS011;2433;48.768;9.154;2024-03-23T12:03:24;2.60;;;0.90;;
4837;SDS011;2433;48.768;9.154;2024-03-23T12:05:52;0.93;;;0.63;;
4837;SDS011;2433;48.768;9.154;2024-03-23T12:08:22;1.33;;;0.50;;
4837;SDS011;2433;48.768;9.154;2024-03-23T12:10:50;1.17;;;0.77;;
4837;SDS011;2433;48.768;9.154;2024-03-23T12:13:20;4.80;;;1.10;;
4837;SDS011;2433;48.768;9.154;2024-03-23T12:15:47;0.87;;;0.60;;
4837;SDS011;2433;48.768;9.154;2024-03-23T12:18:16;1.10;;;0.50;;
4837;SDS011;2433;48.768;9.154;2024-03-23T12:20:42;7.00;;;1.03;;
4837;SDS011;2433;48.768;9.154;2024-03-23T12:23:09;1.43;;;0.77;;
4837;SDS011;2433;48.768;9.154;2024-03-23T12:25:37;1.13;;;0.70;;
4837;SDS011;2433;48.768;9.154;2024-03-23T12:28:04;1.00;;;0.73;;
4837;SDS011;2433;48.768;9.154;2024-03-23T12:30:37;3.70;;;1.33;;
4837;SDS011;2433;48.768;9.154;2024-03-23T12:33:04;3.23;;;1.10;;
4837;SDS011;2433;48.768;9.154;2024-03-23T12:35:30;1.70;;;1.10;;
4837;SDS011;2433;48.768;9.154;2024-03-23T12:37:55;9.07;;;1.00;;
4837;SDS011;2433;48.768;9.154;2024-03-23T12:40:21;4.87;;;0.97;;
4837;SDS011;2433;48.768;9.154;2024-03-23T12:42:46;2.20;;;1.23;;
4837;SDS011;2433;48.768;9.154;2024-03-23T12:45:12;1.83;;;1.10;;
4837;SDS011;2433;48.768;9.154;2024-03-23T12:47:38;1.60;;;1.00;;
4837;SDS011;2433;48.768;9.154;2024-03-23T12:50:04;1.43;;;0.67;;
4837;SDS011;2433;48.768;9.154;2024-03-23T12:52:31;1.20;;;0.70;;
4837;SDS011;2433;48.768;9.154;2024-03-23T12:54:57;1.13;;;0.60;;
4837;SDS011;2433;48.768;9.154;2024-03-23T12:57:26;0.97;;;0.63;;
4837;SDS011;2433;48.768;9.154;2024-03-23T12:59:51;0.97;;;0.80;;
4837;SDS011;2433;48.768;9.154;2024-03-23T13:02:18;4.83;;;1.17;;
4837;SDS011;2433;48.768;9.154;2024-03-23T13:04:45;1.20;;;0.93;;
4837;SDS011;2433;48.768;9.154;2024-03-23T13:07:20;1.80;;;0.97;;
4837;SDS011;2433;48.768;9.154;2024-03-23T13:09:47;1.77;;;1.20;;
4837;SDS011;2433;48.768;9.154;2024-03-23T13:12:12;2.10;;;1.13;;
4837;SDS011;2433;48.768;9.154;2024-03-23T13:14:38;5.57;;;1.07;;
4837;SDS011;2433;48.768;9.154;2024-03-23T13:17:04;7.30;;;1.07;;
4837;SDS011;2433;48.768;9.154;2024-03-23T13:19:30;3.53;;;1.17;;
4837;SDS011;2433;48.768;9.154;2024-03-23T13:21:57;6.17;;;1.33;;
4837;SDS011;2433;48.768;9.154;2024-03-23T13:24:27;4.80;;;1.20;;
4837;SDS011;2433;48.768;9.154;2024-03-23T13:26:53;2.60;;;1.40;;
4837;SDS011;2433;48.768;9.154;2024-03-23T13:29:19;1.70;;;0.90;;
4837;SDS011;2433;48.768;9.154;2024-03-23T13:31:48;3.07;;;1.43;;
4837;SDS011;2433;48.768;9.154;2024-03-23T13:34:14;1.20;;;0.67;;
4837;SDS011;2433;48.768;9.154;2024-03-23T13:36:41;1.20;;;1.10;;
4837;SDS011;2433;48.768;9.154;2024-03-23T13:39:07;4.23;;;1.00;;
4837;SDS011;2433;48.768;9.154;2024-03-23T13:41:40;3.07;;;0.83;;
4837;SDS011;2433;48.768;9.154;2024-03-23T13:44:06;3.00;;;0.83;;
4837;SDS011;2433;48.768;9.154;2024-03-23T13:46:32;1.00;;;0.67;;
4837;SDS011;2433;48.768;9.154;2024-03-23T13:48:58;2.73;;;0.80;;
4837;SDS011;2433;48.768;9.154;2024-03-23T13:51:25;1.60;;;0.80;;
4837;SDS011;2433;48.768;9.154;2024-03-23T13:53:55;7.80;;;0.93;;
4837;SDS011;2433;48.768;9.154;2024-03-23T13:56:28;0.80;;;0.60;;
4837;SDS011;2433;48.768;9.154;2024-03-23T13:58:55;1.33;;;0.87;;
4837;SDS011;2433;48.768;9.154;2024-03-23T14:01:21;1.33;;;0.40;;
4837;SDS011;2433;48.768;9.154;2024-03-23T14:03:47;2.20;;;1.07;;
4837;SDS011;2433;48.768;9.154;2024-03-23T14:06:12;1.07;;;0.63;;
4837;SDS011;2433;48.768;9.154;2024-03-23T14:08:38;2.27;;;0.60;;
4837;SDS011;2433;48.768;9.154;2024-03-23T14:11:08;1.43;;;0.83;;
4837;SDS011;2433;48.768;9.154;2024-03-23T14:13:35;1.33;;;0.70;;
4837;SDS011;2433;48.768;9.154;2024-03-23T14:16:00;5.60;;;0.70;;
4837;SDS011;2433;48.768;9.154;2024-03-23T14:18:27;0.70;;;0.47;;
4837;SDS011;2433;48.768;9.154;2024-03-23T14:20:56;1.20;;;0.60;;
4837;SDS011;2433;48.768;9.154;2024-03-23T14:23:24;0.67;;;0.40;;
4837;SDS011;2433;48.768;9.154;2024-03-23T14:25:52;2.10;;;0.83;;
4837;SDS011;2433;48.768;9.154;2024-03-23T14:28:19;1.90;;;0.93;;
4837;SDS011;2433;48.768;9.154;2024-03-23T14:30:44;0.40;;;0.30;;
4837;SDS011;2433;48.768;9.154;2024-03-23T14:33:10;1.50;;;0.80;;
4837;SDS011;2433;48.768;9.154;2024-03-23T14:35:35;0.50;;;0.30;;
4837;SDS011;2433;48.768;9.154;2024-03-23T14:38:01;0.53;;;0.40;;
4837;SDS011;2433;48.768;9.154;2024-03-23T14:40:28;1.50;;;0.57;;
4837;SDS011;2433;48.768;9.154;2024-03-23T14:42:54;0.73;;;0.40;;
4837;SDS011;2433;48.768;9.154;2024-03-23T14:45:20;0.60;;;0.47;;
4837;SDS011;2433;48.768;9.154;2024-03-23T14:47:52;0.87;;;0.63;;
4837;SDS011;2433;48.768;9.154;2024-03-23T14:50:18;2.40;;;0.57;;
4837;SDS011;2433;48.768;9.154;2024-03-23T14:52:44;0.70;;;0.30;;
4837;SDS011;2433;48.768;9.154;2024-03-23T14:55:11;2.30;;;0.70;;
4837;SDS011;2433;48.768;9.154;2024-03-23T14:57:37;2.10;;;0.60;;
4837;SDS011;2433;48.768;9.154;2024-03-23T15:00:05;1.17;;;0.50;;
4837;SDS011;2433;48.768;9.154;2024-03-23T15:02:32;1.13;;;0.50;;
4837;SDS011;2433;48.768;9.154;2024-03-23T15:04:58;1.07;;;1.07;;
4837;SDS011;2433;48.768;9.154;2024-03-23T15:07:24;1.10;;;0.90;;
4837;SDS011;2433;48.768;9.154;2024-03-23T15:09:50;1.77;;;0.67;;
4837;SDS011;2433;48.768;9.154;2024-03-23T15:12:15;0.70;;;0.50;;
4837;SDS011;2433;48.768;9.154;2024-03-23T15:14:41;0.60;;;0.30;;
4837;SDS011;2433;48.768;9.154;2024-03-23T15:17:06;2.73;;;0.83;;
4837;SDS011;2433;48.768;9.154;2024-03-23T15:19:32;0.90;;;0.67;;
4837;SDS011;2433;48.768;9.154;2024-03-23T15:21:58;0.80;;;0.40;;
4837;SDS011;2433;48.768;9.154;2024-03-23T15:24:23;1.40;;;0.70;;
4837;SDS011;2433;48.768;9.154;2024-03-23T15:26:49;0.80;;;0.60;;
4837;SDS011;2433;48.768;9.154;2024-03-23T15:29:17;0.60;;;0.40;;
4837;SDS011;2433;48.768;9.154;2024-03-23T15:31:43;3.70;;;0.97;;
4837;SDS011;2433;48.768;9.154;2024-03-23T15:34:10;0.50;;;0.30;;
4837;SDS011;2433;48.768;9.154;2024-03-23T15:36:36;0.70;;;0.37;;
4837;SDS011;2433;48.768;9.154;2024-03-23T15:39:04;5.60;;;0.70;;
4837;SDS011;2433;48.768;9.154;2024-03-23T15:41:30;0.70;;;0.40;;
4837;SDS011;2433;48.768;9.154;2024-03-23T15:43:56;0.70;;;0.50;;
4837;SDS011;2433;48.768;9.154;2024-03-23T15:46:22;2.17;;;0.90;;
4837;SDS011;2433;48.768;9.154;2024-03-23T15:48:47;0.63;;;0.50;;
4837;SDS011;2433;48.768;9.154;2024-03-23T15:51:15;0.70;;;0.37;;
4837;SDS011;2433;48.768;9.154;2024-03-23T15:53:40;1.73;;;0.50;;
4837;SDS011;2433;48.768;9.154;2024-03-23T15:56:06;0.70;;;0.70;;
4837;SDS011;2433;48.768;9.154;2024-03-23T15:58:32;2.10;;;0.80;;
4837;SDS011;2433;48.768;9.154;2024-03-23T16:03:25;1.60;;;0.87;;
4837;SDS011;2433;48.768;9.154;2024-03-23T16:05:54;2.17;;;0.90;;
4837;SDS011;2433;48.768;9.154;2024-03-23T16:08:21;1.97;;;0.60;;
4837;SDS011;2433;48.768;9.154;2024-03-23T16:10:47;1.43;;;0.60;;
4837;SDS011;2433;48.768;9.154;2024-03-23T16:13:13;1.07;;;0.60;;
4837;SDS011;2433;48.768;9.154;2024-03-23T16:15:39;0.57;;;0.30;;
4837;SDS011;2433;48.768;9.154;2024-03-23T16:18:05;1.00;;;0.40;;